EDDB/SXF METAR and TAF weather

Enter ICAO airport designator
Station Type Date Time Source
EDDB METAR 2021/08/05 04:20 UTC NOAA

EDDB 050420Z 06005KT CAVOK 14/12 Q1011 NOSIG


Station Type Date Time Source
EDDB Decoded METAR 2021/08/05 04:20 UTC NOAA

Berlin-Schoenefeld, Germany (EDDB) 52-23N 013-31E 50M
Aug 05, 2021 - 12:20 AM EDT / 2021.08.05 0420 UTC
Wind: from the ENE (060 degrees) at 6 MPH (5 KT):0
Visibility: greater than 7 mile(s):0
Temperature: 57 F (14 C)
Dew Point: 53 F (12 C)
Relative Humidity: 87%
Pressure (altimeter): 29.85 in. Hg (1011 hPa)
ob: EDDB 050420Z 06005KT CAVOK 14/12 Q1011 NOSIG
cycle: 4

Station Type Date Time Source
EDDB TAF 2021/08/04 18:27 UTC NOAA

TAF TAF EDDB 041700Z 0418/0518 06005KT CAVOK PROB30
TEMPO 0514/0517 09012KT SHRA SCT030CB

Example: see airport list